Latest Coastal Weather Observations for Port Augusta

IDS60701

Issued at 4:41 am CST Monday 26 September 2016 (issued every 10 minutes, with the page automatically refreshed every 10 minutes)

About coastal observations | Map of coastal stations | Coastal observations for SA | Marine services | Other Formats
Station Details ID: 018201 Name: PORT AUGUSTA AERO Lat: -32.51 Lon: 137.72 Height: 13.97 m
Data from the previous 72 hours. | See also: Recent months at Port Augusta
Date/Time
CST
Temp
°C
Wind Pressure Rain since
9am
mm
Weather Cloud Vis
km
Sea
Height
m
Swell
Dir  Spd
kts
Gust
kts
hPa Trend Height
m
Period
s
Dir
26/04:30am 5.1 W 5 7 1013.4 - 0.2 - - - - - - -
26/04:00am 5.5 WSW 4 5 1013.6 - 0.2 - - - - - - -
26/03:30am 5.4 W 8 10 1013.8 - 0.2 - - - - - - -
26/03:00am 4.7 WSW 5 6 1013.8 - 0.2 - - - - - - -
26/02:30am 5.3 CALM 0 0 1014.3 - 0.2 - - - - - - -
26/02:00am 7.0 CALM 0 0 1014.8 - 0.2 - - - - - - -
26/01:30am 7.4 N 4 5 1015.3 - 0.2 - - - - - - -
26/01:00am 7.6 NNE 4 6 1015.8 - 0.2 - - - - - - -
26/12:30am 6.6 NNE 5 7 1016.1 - 0.2 - - - - - - -
26/12:00am 7.9 N 3 5 1016.1 - 0.2 - - - - - - -
 
Date/Time
CST
Temp
°C
Wind Pressure Rain since
9am
mm
Weather Cloud Vis
km
Sea
Height
m
Swell
Dir  Spd
kts
Gust
kts
hPa Trend Height
m
Period
s
Dir
25/11:30pm 8.5 NNW 1 4 1016.2 - 0.2 - - - - - - -
25/11:00pm 8.7 NNW 3 4 1016.1 - 0.2 - - - - - - -
25/10:30pm 9.1 W 1 3 1016.3 - 0.2 - - - - - - -
25/10:00pm 9.6 WNW 5 6 1016.4 - 0.2 - - - - - - -
25/09:30pm 10.4 NNW 4 5 1016.3 - 0.2 - - - - - - -
25/09:00pm 9.9 WNW 3 5 1016.1 - 0.2 - - - - - - -
25/08:30pm 11.6 NW 2 4 1015.6 - 0.2 - - - - - - -
25/08:00pm 11.4 WNW 4 6 1015.5 - 0.2 - - - - - - -
25/07:30pm 14.2 ENE 3 5 1015.1 - 0.2 - - - - - - -
25/07:00pm 14.0 ESE 1 4 1014.6 - 0.2 - - - - - - -
25/06:30pm 14.6 NNE 5 6 1014.3 - 0.2 - - - - - - -
25/06:00pm 16.7 CALM 0 3 1014.0 - 0.2 - - - - - - -
25/05:30pm 17.5 NNE 4 6 1014.0 - 0.2 - Partly cloudy - - - - -
25/05:00pm 17.5 NW 5 7 1013.9 - 0.2 - Partly cloudy - - - - -
25/04:30pm 17.6 NNW 5 7 1013.9 - 0.2 - - - - - - -
25/04:00pm 18.3 N 4 7 1014.1 - 0.2 - - - - - - -
25/03:30pm 18.2 NW 5 8 1014.0 - 0.2 - - - - - - -
25/03:00pm 17.5 SW 6 9 1014.1 - 0.2 - Mostly clear - - - - -
25/02:30pm 17.9 SSE 6 9 1014.6 - 0.2 - - - - - - -
25/02:00pm 17.6 NW 6 11 1015.0 - 0.2 - - - - - - -
25/01:30pm 16.4 SW 4 7 1015.4 - 0.2 - - - - - - -
25/01:00pm 17.3 SSW 8 11 1016.3 - 0.2 - Partly cloudy - - - - -
25/12:30pm 16.9 N 6 11 1016.4 - 0.2 - Cloudy - - - - -
25/12:00pm 15.3 NNE 3 8 1016.7 - 0.0 - Mostly cloudy - - - - -
25/11:30am 14.7 SE 5 9 1017.1 - 0.0 - Cloudy - - - - -
25/11:00am 14.2 ESE 5 10 1017.2 - 0.0 - Partly cloudy - - - - -
25/10:30am 13.8 SW 4 6 1017.5 - 0.0 - Partly cloudy - - - - -
25/10:00am 13.7 WNW 7 9 1017.9 - 0.0 - Cloudy - - - - -
25/09:30am 13.8 NNW 5 7 1017.9 - 0.0 - Partly cloudy - - - - -
25/09:00am 12.6 SW 4 7 1017.9 - 3.6 - - - - - - -
25/08:30am 11.8 SW 4 6 1017.8 - 3.6 - - - - - - -
25/08:00am 10.5 ESE 2 4 1017.6 - 3.6 - - - - - - -
25/07:30am 9.0 NE 4 7 1017.7 - 3.6 - - - - - - -
25/07:00am 8.3 SW 9 12 1017.4 - 3.6 - - - - - - -
25/06:30am 7.0 SW 10 13 1016.9 - 3.6 - - - - - - -
25/06:00am 6.1 SSW 8 9 1016.6 - 3.6 - - - - - - -
25/05:30am 6.5 SW 5 7 1016.2 - 3.6 - - - - - - -
25/05:00am 6.5 SW 7 9 1015.7 - 3.6 - - - - - - -
25/04:30am 6.9 WSW 9 11 1015.5 - 3.6 - - - - - - -
25/04:00am 6.6 SW 6 8 1015.0 - 3.6 - - - - - - -
25/03:30am 7.2 SSW 5 6 1014.8 - 3.6 - - - - - - -
25/03:00am 7.6 SSE 5 7 1014.8 - 3.6 - - - - - - -
25/02:30am 7.8 SW 11 13 1014.6 - 3.6 - - - - - - -
25/02:00am 8.2 SW 10 13 1014.8 - 3.6 - - - - - - -
25/01:30am 8.4 WSW 7 10 1015.1 - 3.6 - - - - - - -
25/01:00am 8.9 ESE 2 6 1015.1 - 3.6 - - - - - - -
25/12:30am 8.5 WSW 4 6 1015.2 - 3.6 - - - - - - -
25/12:00am 9.2 WSW 8 9 1015.2 - 3.6 - - - - - - -
 
Date/Time
CST
Temp
°C
Wind Pressure Rain since
9am
mm
Weather Cloud Vis
km
Sea
Height
m
Swell
Dir  Spd
kts
Gust
kts
hPa Trend Height
m
Period
s
Dir
24/11:30pm 9.5 WSW 7 8 1015.2 - 3.6 - - - - - - -
24/11:00pm 10.2 SW 9 11 1014.9 - 3.6 - - - - - - -
24/10:30pm 9.8 CALM 0 0 1014.7 - 3.6 - - - - - - -
24/10:00pm 10.5 S 3 5 1014.7 - 3.6 - - - - - - -
24/09:30pm 11.1 SW 9 11 1014.4 - 3.6 - Partly cloudy - - - - -
24/09:00pm 11.3 SSW 10 15 1014.1 - 3.6 - Partly cloudy - - - - -
24/08:30pm 11.7 SSW 11 15 1013.9 - 3.6 - Cloudy - - - - -
24/08:00pm 11.6 S 12 17 1013.4 - 3.6 - Partly cloudy - - - - -
24/07:30pm 11.7 SSW 18 23 1012.7 - 3.6 - Partly cloudy - - - - -
24/07:00pm 11.7 SSW 21 31 1012.0 - 3.4 - Partly cloudy - - - - -
24/06:45pm 12.2 SSW 17 31 1011.5 - 2.8 - Partly cloudy - - - - -
24/06:30pm 12.8 SSW 14 19 1011.0 - 2.6 - Partly cloudy - - - - -
24/06:00pm 13.9 S 16 20 1010.2 - 1.2 - Cloudy - - - - -
24/05:30pm 14.4 S 13 17 1009.4 - 1.2 - Partly cloudy - - - - -
24/05:00pm 14.6 SW 13 19 1008.3 - 1.2 - Partly cloudy - - - - -
24/04:30pm 16.8 SSE 15 21 1007.1 - 0.2 - Partly cloudy - - - - -
24/04:00pm 20.1 SW 12 16 1006.6 - 0.2 - Partly cloudy - - - - -
24/03:30pm 20.1 SW 12 16 1006.3 - 0.2 - Partly cloudy - - - - -
24/03:00pm 20.6 WSW 15 20 1006.2 - 0.2 - Cloudy - - - - -
24/02:30pm 21.2 WSW 14 19 1006.0 - 0.2 - Partly cloudy - - - - -
24/02:00pm 20.8 SW 13 17 1006.0 - 0.2 - Partly cloudy - - - - -
24/01:30pm 21.2 WSW 14 20 1006.2 - 0.2 - Partly cloudy - - - - -
24/01:00pm 20.9 WSW 12 19 1006.3 - 0.2 - Partly cloudy - - - - -
24/12:30pm 21.3 WSW 14 19 1006.5 - 0.2 - Partly cloudy - - - - -
24/12:00pm 21.0 W 7 16 1006.8 - 0.2 Recent precip. Mostly clear - - - - -
24/11:30am 19.1 SE 6 8 1007.0 - 0.0 - Partly cloudy - - - - -
24/11:00am 18.3 SSW 7 11 1007.3 - 0.0 - Partly cloudy - - - - -
24/10:30am 19.1 WNW 4 9 1007.5 - 0.0 - Partly cloudy - - - - -
24/10:00am 18.9 WNW 5 10 1007.7 - 0.0 - Cloudy - - - - -
24/09:30am 17.6 S 3 4 1007.7 - 0.0 - Partly cloudy - - - - -
24/09:00am 16.4 WSW 2 5 1007.8 - - - Cloudy - - - - -
24/08:30am 14.3 S 6 7 1007.4 - - - Cloudy - - - - -
24/08:00am 13.5 S 4 6 1007.4 - - - Cloudy - - - - -
24/07:30am 13.2 ESE 5 7 1006.8 - - - Partly cloudy - - - - -
24/07:00am 12.7 SSE 6 8 1006.8 - - - Partly cloudy - - - - -
24/06:30am 12.5 W 6 7 1007.6 - - - Partly cloudy - - - - -
24/06:00am 12.4 SW 7 9 1006.8 - - Recent precip. Cloudy - - - - -
24/05:30am 12.6 WSW 10 12 1006.5 - - - Partly cloudy - - - - -
24/05:00am 13.2 WNW 7 10 1006.4 - - - Partly cloudy - - - - -
24/04:30am 13.0 W 7 11 1006.2 - - - Partly cloudy - - - - -
24/04:00am 15.2 NW 11 15 1005.9 - - - Partly cloudy - - - - -
24/03:30am 16.1 NNW 10 14 1005.2 - - - Cloudy - - - - -
24/03:00am 15.4 NNW 7 9 1005.4 - 0.0 - Cloudy - - - - -
24/02:30am 14.1 NW 9 11 1006.0 - - - - - - - - -
24/02:00am 13.7 NW 9 11 1005.9 - - - - - - - - -
24/01:30am 13.3 NW 7 8 1006.5 - - - - - - - - -
24/01:00am 13.7 NW 8 10 1006.8 - - - - - - - - -
24/12:30am 11.4 W 5 7 1006.6 - - - - - - - - -
24/12:00am 10.9 WNW 5 7 1006.8 - - - Partly cloudy - - - - -
 
Date/Time
CST
Temp
°C
Wind Pressure Rain since
9am
mm
Weather Cloud Vis
km
Sea
Height
m
Swell
Dir  Spd
kts
Gust
kts
hPa Trend Height
m
Period
s
Dir
23/11:30pm 11.7 WSW 4 5 1007.0 - - - - - - - - -
23/11:00pm 12.1 NNW 6 7 1007.3 - - - - - - - - -
23/10:30pm 12.4 NNW 6 7 1007.3 - - - - - - - - -
23/10:00pm 12.5 N 7 7 1007.1 - - - - - - - - -
23/09:30pm 14.0 N 9 10 1007.7 - - - - - - - - -
23/09:00pm 14.5 N 9 10 1007.6 - 0.0 - - - - - - -
23/08:30pm 15.3 N 9 11 1007.7 - - - - - - - - -
23/08:00pm 16.2 N 9 11 1007.5 - - - - - - - - -
23/07:30pm 16.6 NNE 9 10 1007.4 - - - - - - - - -
23/07:00pm 17.6 N 11 14 1007.3 - - - - - - - - -
23/06:30pm 18.1 NNE 10 12 1006.9 - - - - - - - - -
23/06:00pm 20.0 N 14 19 1007.0 - - - - - - - - -
23/05:30pm 21.0 N 17 22 1006.7 - - - - - - - - -
23/05:00pm 21.6 NNE 17 23 1007.1 - - - - - - - - -
23/04:30pm 21.8 NNE 18 24 1007.1 - - - - - - - - -
23/04:00pm 22.1 N 17 22 1007.4 - - - - - - - - -
23/03:30pm 21.9 N 19 24 1007.6 - - - - - - - - -
23/03:00pm 21.9 N 20 27 1008.1 - - - - - - - - -
23/02:30pm 22.1 N 20 25 1008.6 - - - - - - - - -
23/02:00pm 21.9 N 18 25 1009.1 - - - - - - - - -
23/01:30pm 21.2 N 19 25 1009.8 - - - - - - - - -
23/01:00pm 20.9 N 18 26 1010.4 - - - - - - - - -
23/12:30pm 20.7 N 18 23 1011.2 - - - - - - - - -
23/12:00pm 19.6 N 17 23 1011.8 - - - - - - - - -
23/11:30am 19.5 N 17 23 1012.4 - - - - - - - - -
23/10:00am 17.3 NNW 18 23 1013.9 - 0.0 - - 10 - - - -
23/09:30am 16.8 N 18 23 1014.3 - 0.0 - - 10 - - - -
23/09:00am 15.8 N 16 20 1014.7 - 0.0 - - 10 - - - -
23/08:30am 13.7 NW 11 14 1015.0 - 0.0 - - 10 - - - -
23/08:00am 11.8 NW 9 11 1015.1 - 0.0 - - 10 - - - -
23/07:30am 9.2 W 5 6 1015.1 - 0.0 - - 10 - - - -
23/07:00am 6.8 NW 4 4 1015.2 - 0.0 - - 10 - - - -
23/06:30am 4.4 SSE 3 4 1015.3 - 0.0 - - 10 - - - -
23/06:00am 4.3 SSE 3 4 1015.2 - 0.0 - - 10 - - - -
23/05:30am 4.6 SW 3 4 1015.3 - 0.0 - - 10 - - - -
23/05:00am 4.4 SW 3 4 1015.6 - 0.0 - - 10 - - - -

Other Formats:

Comma delimited format used in spreadsheet applications
http://www.bom.gov.au/fwo/IDS60701/IDS60701.95666.axf

JavaScript Object Notation format (JSON) in row-major order
http://www.bom.gov.au/fwo/IDS60701/IDS60701.95666.json